Bredon, United Kingdom
Current Conditions -  °F | °C
As of 9:20 AM on Wednesday 22 Oct 2014 (Local Time) from EGBJ Reporting Station
Scattered Clouds Scattered Clouds  
Wind Chill: 52°   Ceiling: Unl
Heat Index: 52°   Visibility: 6mi
Dew Point: 45°   Wind: 5mph
Humidity: 76%   Direction: 260°W
Pressure: 30.3"   Gusts: NA
Location:  52.03°N, 2.11°W
Report Text: EGBJ 220820Z 26004KT 9999 SCT040 11/07 Q1026
Loading
Personal Weather Stations






























Interactive Weather Map New forecast layout! Learn more

10-Day Weather Forecast

Advertisements
Track Severe Weather on mobile